createdAt,value
2023-08-14T00:00:51.362Z,14.69
2023-08-14T00:01:51.238Z,14.66
2023-08-14T00:02:51.250Z,14.67
2023-08-14T00:03:51.240Z,14.67
2023-08-14T00:04:51.217Z,14.66
2023-08-14T00:05:51.180Z,14.66
2023-08-14T00:06:51.168Z,14.66
2023-08-14T00:07:51.177Z,14.64
2023-08-14T00:08:51.163Z,14.64
2023-08-14T00:09:51.162Z,14.63
2023-08-14T00:10:51.120Z,14.61
2023-08-14T00:11:51.113Z,14.61
2023-08-14T00:12:51.107Z,14.59
2023-08-14T00:13:51.105Z,14.56
2023-08-14T00:14:51.087Z,14.55
2023-08-14T00:15:51.106Z,14.55
2023-08-14T00:16:51.080Z,14.53
2023-08-14T00:17:51.116Z,14.53
2023-08-14T00:18:51.080Z,14.52
2023-08-14T00:19:51.029Z,14.51
2023-08-14T00:20:51.021Z,14.51
2023-08-14T00:21:51.006Z,14.49
2023-08-14T00:22:51.009Z,14.48
2023-08-14T00:23:50.974Z,14.48
2023-08-14T00:24:51.035Z,14.48
2023-08-14T00:25:50.976Z,14.48
2023-08-14T00:26:50.959Z,14.46
2023-08-14T00:27:50.944Z,14.45
2023-08-14T00:28:50.933Z,14.44
2023-08-14T00:29:50.922Z,14.44
2023-08-14T00:30:50.923Z,14.45
2023-08-14T00:31:50.949Z,14.41
2023-08-14T00:32:50.931Z,14.40
2023-08-14T00:33:50.887Z,14.40
2023-08-14T00:34:50.868Z,14.40
2023-08-14T00:35:50.957Z,14.38
2023-08-14T00:36:50.857Z,14.38
2023-08-14T00:37:50.872Z,14.36
2023-08-14T00:38:50.822Z,14.33
2023-08-14T00:39:50.798Z,14.33
2023-08-14T00:40:50.807Z,14.33
2023-08-14T00:41:50.805Z,14.33
2023-08-14T00:42:50.802Z,14.30
2023-08-14T00:43:50.759Z,14.28
2023-08-14T00:44:50.760Z,14.28
2023-08-14T00:45:50.739Z,14.27
2023-08-14T00:46:50.777Z,14.27
2023-08-14T00:47:50.768Z,14.27
2023-08-14T00:48:50.774Z,14.26
2023-08-14T00:49:50.708Z,14.23
2023-08-14T00:50:50.681Z,14.26
2023-08-14T00:51:50.684Z,14.27
2023-08-14T00:52:50.689Z,14.26
2023-08-14T00:53:50.661Z,14.26
2023-08-14T00:54:50.684Z,14.23
2023-08-14T00:55:50.625Z,14.23
2023-08-14T00:56:50.640Z,14.22
2023-08-14T00:57:50.662Z,14.22
2023-08-14T00:58:50.625Z,14.22
2023-08-14T00:59:50.624Z,14.21
2023-08-14T01:00:50.615Z,14.19
2023-08-14T01:01:50.599Z,14.19
2023-08-14T01:02:50.627Z,14.21
2023-08-14T01:03:50.566Z,14.18
2023-08-14T01:04:50.561Z,14.18
2023-08-14T01:05:50.543Z,14.16
2023-08-14T01:06:50.520Z,14.15
2023-08-14T01:07:50.508Z,14.15
2023-08-14T01:08:50.518Z,14.12
2023-08-14T01:09:50.488Z,14.13
2023-08-14T01:10:50.482Z,14.12
2023-08-14T01:11:50.461Z,14.12
2023-08-14T01:12:50.468Z,14.09
2023-08-14T01:13:50.459Z,14.08
2023-08-14T01:14:50.448Z,14.04
2023-08-14T01:15:50.444Z,14.03
2023-08-14T01:16:50.468Z,14.00
2023-08-14T01:17:50.453Z,14.00
2023-08-14T01:18:50.401Z,14.00
2023-08-14T01:19:50.387Z,14.00
2023-08-14T01:20:50.370Z,13.98
2023-08-14T01:21:50.393Z,13.98
2023-08-14T01:22:50.408Z,13.97
2023-08-14T01:23:50.376Z,13.97
2023-08-14T01:24:50.344Z,13.97
2023-08-14T01:25:50.311Z,13.98
2023-08-14T01:26:50.302Z,13.98
2023-08-14T01:27:50.391Z,13.97
2023-08-14T01:28:50.284Z,13.98
2023-08-14T01:29:50.294Z,13.98
2023-08-14T01:30:50.270Z,13.98
2023-08-14T01:31:50.258Z,13.98
2023-08-14T01:32:50.278Z,13.98
2023-08-14T01:33:50.255Z,13.97
2023-08-14T01:34:50.242Z,13.96
2023-08-14T01:35:50.220Z,13.94
2023-08-14T01:36:50.208Z,13.94
2023-08-14T01:37:50.192Z,13.94
2023-08-14T01:38:50.201Z,13.93
2023-08-14T01:39:50.153Z,13.93
2023-08-14T01:40:50.205Z,13.94
2023-08-14T01:41:50.141Z,13.94
2023-08-14T01:42:50.129Z,13.93
2023-08-14T01:43:50.120Z,13.93
2023-08-14T01:44:50.125Z,13.93
2023-08-14T01:45:50.148Z,13.91
2023-08-14T01:46:50.090Z,13.93
2023-08-14T01:47:50.120Z,13.91
2023-08-14T01:48:50.098Z,13.90
2023-08-14T01:49:50.050Z,13.90
2023-08-14T01:50:50.033Z,13.91
2023-08-14T01:51:50.082Z,13.90
2023-08-14T01:52:50.022Z,13.90
2023-08-14T01:53:49.998Z,13.88
2023-08-14T01:54:50.011Z,13.86
2023-08-14T01:55:49.999Z,13.88
2023-08-14T01:56:49.986Z,13.86
2023-08-14T01:57:49.964Z,13.85
2023-08-14T01:58:49.946Z,13.82
2023-08-14T01:59:49.965Z,13.82
2023-08-14T02:00:49.926Z,13.80
2023-08-14T02:01:49.945Z,13.79
2023-08-14T02:02:49.984Z,13.79
2023-08-14T02:03:49.948Z,13.78
2023-08-14T02:04:52.274Z,13.76
2023-08-14T02:05:49.867Z,13.76
2023-08-14T02:06:49.855Z,13.75
2023-08-14T02:07:49.845Z,13.78
2023-08-14T02:08:49.845Z,13.76
2023-08-14T02:09:49.879Z,13.75
2023-08-14T02:10:49.855Z,13.73
2023-08-14T02:11:49.797Z,13.72
2023-08-14T02:12:49.801Z,13.71
2023-08-14T02:13:49.779Z,13.68
2023-08-14T02:14:49.782Z,13.67
2023-08-14T02:15:49.783Z,13.67
2023-08-14T02:16:49.747Z,13.65
2023-08-14T02:17:49.751Z,13.65
2023-08-14T02:18:49.718Z,13.63
2023-08-14T02:19:49.744Z,13.61
2023-08-14T02:20:49.724Z,13.60
2023-08-14T02:21:49.812Z,13.61
2023-08-14T02:22:49.680Z,13.60
2023-08-14T02:23:49.667Z,13.58
2023-08-14T02:24:49.688Z,13.58
2023-08-14T02:25:49.649Z,13.57
2023-08-14T02:26:49.645Z,13.55
2023-08-14T02:27:49.626Z,13.54
2023-08-14T02:28:49.615Z,13.53
2023-08-14T02:29:49.603Z,13.53
2023-08-14T02:30:49.612Z,13.53
2023-08-14T02:31:49.615Z,13.53
2023-08-14T02:32:49.599Z,13.53
2023-08-14T02:33:49.563Z,13.53
2023-08-14T02:34:49.544Z,13.53
2023-08-14T02:35:49.538Z,13.51
2023-08-14T02:36:49.548Z,13.53
2023-08-14T02:37:49.510Z,13.49
2023-08-14T02:38:49.553Z,13.51
2023-08-14T02:39:49.486Z,13.49
2023-08-14T02:40:49.522Z,13.47
2023-08-14T02:41:49.496Z,13.45
2023-08-14T02:42:49.457Z,13.45
2023-08-14T02:43:49.475Z,13.43
2023-08-14T02:44:49.458Z,13.42
2023-08-14T02:45:49.478Z,13.45
2023-08-14T02:46:49.415Z,13.45
2023-08-14T02:47:49.450Z,13.46
2023-08-14T02:48:49.397Z,13.43
2023-08-14T02:49:49.386Z,13.43
2023-08-14T02:50:49.366Z,13.43
2023-08-14T02:51:49.372Z,13.42
2023-08-14T02:52:49.346Z,13.43
2023-08-14T02:53:49.336Z,13.43
2023-08-14T02:54:49.329Z,13.43
2023-08-14T02:55:49.303Z,13.43
2023-08-14T02:56:50.775Z,13.43
2023-08-14T02:57:49.289Z,13.43
2023-08-14T02:58:49.276Z,13.43
2023-08-14T02:59:49.262Z,13.42
2023-08-14T03:00:49.299Z,13.42
2023-08-14T03:01:49.248Z,13.40
2023-08-14T03:02:49.360Z,13.42
2023-08-14T03:03:49.208Z,13.39
2023-08-14T03:04:49.238Z,13.39
2023-08-14T03:05:49.202Z,13.38
2023-08-14T03:06:49.176Z,13.36
2023-08-14T03:07:49.198Z,13.38
2023-08-14T03:08:49.162Z,13.36
2023-08-14T03:09:49.156Z,13.35
2023-08-14T03:10:49.143Z,13.36
2023-08-14T03:11:49.136Z,13.32
2023-08-14T03:12:49.143Z,13.35
2023-08-14T03:13:49.117Z,13.32
2023-08-14T03:14:49.110Z,13.35
2023-08-14T03:15:49.085Z,13.35
2023-08-14T03:16:49.107Z,13.36
2023-08-14T03:17:49.084Z,13.35
2023-08-14T03:18:49.068Z,13.35
2023-08-14T03:19:49.118Z,13.36
2023-08-14T03:20:49.048Z,13.36
2023-08-14T03:21:49.065Z,13.36
2023-08-14T03:22:49.036Z,13.36
2023-08-14T03:23:49.001Z,13.35
2023-08-14T03:24:48.993Z,13.36
2023-08-14T03:25:49.025Z,13.35
2023-08-14T03:26:48.967Z,13.32
2023-08-14T03:27:48.963Z,13.30
2023-08-14T03:28:48.951Z,13.29
2023-08-14T03:29:48.949Z,13.27
2023-08-14T03:30:48.967Z,13.26
2023-08-14T03:31:48.898Z,13.26
2023-08-14T03:32:48.962Z,13.23
2023-08-14T03:33:48.896Z,13.26
2023-08-14T03:34:48.893Z,13.24
2023-08-14T03:35:48.866Z,13.23
2023-08-14T03:36:48.884Z,13.20
2023-08-14T03:37:48.844Z,13.19
2023-08-14T03:38:48.793Z,13.20
2023-08-14T03:39:48.825Z,13.19
2023-08-14T03:40:48.832Z,13.17
2023-08-14T03:41:48.806Z,13.19
2023-08-14T03:42:48.805Z,13.16
2023-08-14T03:43:48.797Z,13.16
2023-08-14T03:44:51.452Z,13.16
2023-08-14T03:45:48.763Z,13.14
2023-08-14T03:46:48.823Z,13.14
2023-08-14T03:47:48.702Z,13.14
2023-08-14T03:48:48.771Z,13.11
2023-08-14T03:49:48.671Z,13.13
2023-08-14T03:50:48.657Z,13.13
2023-08-14T03:51:48.650Z,13.14
2023-08-14T03:52:48.634Z,13.13
2023-08-14T03:53:48.622Z,13.16
2023-08-14T03:54:48.608Z,13.14
2023-08-14T03:55:48.589Z,13.14
2023-08-14T03:56:48.610Z,13.14
2023-08-14T03:57:48.645Z,13.13
2023-08-14T03:58:48.599Z,13.13
2023-08-14T03:59:50.614Z,13.09
2023-08-14T04:00:48.566Z,13.09
2023-08-14T04:01:48.537Z,13.13
2023-08-14T04:02:48.583Z,13.13
2023-08-14T04:03:48.556Z,13.13
2023-08-14T04:04:48.527Z,13.11
2023-08-14T04:05:48.497Z,13.11
2023-08-14T04:06:48.571Z,13.13
2023-08-14T04:07:48.472Z,13.14
2023-08-14T04:08:48.467Z,13.13
2023-08-14T04:09:48.439Z,13.13
2023-08-14T04:10:48.430Z,13.11
2023-08-14T04:11:48.416Z,13.13
2023-08-14T04:12:48.455Z,13.09
2023-08-14T04:13:48.402Z,13.11
2023-08-14T04:14:48.383Z,13.09
2023-08-14T04:15:48.368Z,13.08
2023-08-14T04:16:48.500Z,13.08
2023-08-14T04:17:48.370Z,13.06
2023-08-14T04:18:48.366Z,13.06
2023-08-14T04:19:48.338Z,13.06
2023-08-14T04:20:48.328Z,13.08
2023-08-14T04:21:48.317Z,13.09
2023-08-14T04:22:48.312Z,13.06
2023-08-14T04:23:48.311Z,13.06
2023-08-14T04:24:48.318Z,13.08
2023-08-14T04:25:48.265Z,13.08
2023-08-14T04:26:48.269Z,13.08
2023-08-14T04:27:48.271Z,13.08
2023-08-14T04:28:48.250Z,13.09
2023-08-14T04:29:48.237Z,13.09
2023-08-14T04:30:48.223Z,13.09
2023-08-14T04:31:48.227Z,13.09
2023-08-14T04:32:48.227Z,13.11
2023-08-14T04:33:48.188Z,13.11
2023-08-14T04:34:48.168Z,13.13
2023-08-14T04:35:48.158Z,13.11
2023-08-14T04:36:48.138Z,13.14
2023-08-14T04:37:48.153Z,13.14
2023-08-14T04:38:48.142Z,13.14
2023-08-14T04:39:48.123Z,13.19
2023-08-14T04:40:48.133Z,13.20
2023-08-14T04:41:48.090Z,13.19
2023-08-14T04:42:48.080Z,13.19
2023-08-14T04:43:48.109Z,13.21
2023-08-14T04:44:48.047Z,13.21
2023-08-14T04:45:48.078Z,13.23
2023-08-14T04:46:59.164Z,13.24
2023-08-14T04:47:48.061Z,13.27
2023-08-14T04:48:48.046Z,13.29
2023-08-14T04:49:48.002Z,13.30
2023-08-14T04:50:47.988Z,13.32
2023-08-14T04:51:47.992Z,13.32
2023-08-14T04:52:47.967Z,13.35
2023-08-14T04:53:47.971Z,13.38
2023-08-14T04:54:47.970Z,13.39
2023-08-14T04:55:47.935Z,13.40
2023-08-14T04:56:47.921Z,13.42
2023-08-14T04:57:47.910Z,13.45
2023-08-14T04:58:47.908Z,13.45
2023-08-14T04:59:54.054Z,13.47
2023-08-14T05:00:47.950Z,13.49
2023-08-14T05:01:47.941Z,13.49
2023-08-14T05:02:48.356Z,13.51
2023-08-14T05:03:47.853Z,13.53
2023-08-14T05:04:47.938Z,13.55
2023-08-14T05:05:48.217Z,13.57
2023-08-14T05:06:47.820Z,13.60
2023-08-14T05:07:47.797Z,13.63
2023-08-14T05:08:47.787Z,13.64
2023-08-14T05:09:47.805Z,13.65
2023-08-14T05:10:47.785Z,13.65
2023-08-14T05:11:47.766Z,13.71
2023-08-14T05:12:47.778Z,13.72
2023-08-14T05:13:47.740Z,13.75
2023-08-14T05:14:48.285Z,13.78
2023-08-14T05:15:53.316Z,13.79
2023-08-14T05:16:47.877Z,13.80
2023-08-14T05:17:47.759Z,13.83
2023-08-14T05:18:47.698Z,13.85
2023-08-14T05:19:47.671Z,13.88
2023-08-14T05:20:47.677Z,13.91
2023-08-14T05:21:47.662Z,13.94
2023-08-14T05:22:47.632Z,13.97
2023-08-14T05:23:47.674Z,14.01
2023-08-14T05:24:47.617Z,14.03
2023-08-14T05:25:47.596Z,14.08
2023-08-14T05:26:47.923Z,14.12
2023-08-14T05:27:50.557Z,14.15
2023-08-14T05:28:47.599Z,14.21
2023-08-14T05:29:47.593Z,14.26
2023-08-14T05:30:47.549Z,14.30
2023-08-14T05:31:47.671Z,14.36
2023-08-14T05:32:47.601Z,14.41
2023-08-14T05:33:47.519Z,14.44
2023-08-14T05:34:47.494Z,14.49
2023-08-14T05:35:47.515Z,14.53
2023-08-14T05:36:47.487Z,14.59
2023-08-14T05:37:47.470Z,14.64
2023-08-14T05:38:47.468Z,14.69
2023-08-14T05:39:47.454Z,14.73
2023-08-14T05:40:47.431Z,14.78
2023-08-14T05:41:47.555Z,14.86
2023-08-14T05:42:47.415Z,14.90
2023-08-14T05:43:47.422Z,14.95
2023-08-14T05:44:47.402Z,15.01
2023-08-14T05:45:47.451Z,15.05
2023-08-14T05:46:49.502Z,15.11
2023-08-14T05:47:47.397Z,15.17
2023-08-14T05:48:47.362Z,15.22
2023-08-14T05:49:47.343Z,15.27
2023-08-14T05:50:47.359Z,15.35
2023-08-14T05:51:47.370Z,15.40
2023-08-14T05:52:47.310Z,15.48
2023-08-14T05:53:48.077Z,15.54
2023-08-14T05:54:47.290Z,15.65
2023-08-14T05:55:47.285Z,15.76
2023-08-14T05:56:47.265Z,15.85
2023-08-14T05:57:47.308Z,15.96
2023-08-14T05:58:47.242Z,16.06
2023-08-14T05:59:47.246Z,16.16
2023-08-14T06:00:47.271Z,16.25
2023-08-14T06:01:47.230Z,16.33
2023-08-14T06:02:47.244Z,16.43
2023-08-14T06:03:47.354Z,16.49
2023-08-14T06:04:47.186Z,16.61
2023-08-14T06:05:47.191Z,16.69
2023-08-14T06:06:47.167Z,16.74
2023-08-14T06:08:47.238Z,16.90
2023-08-14T06:09:47.128Z,16.98
2023-08-14T06:10:47.113Z,17.02
2023-08-14T06:11:47.130Z,17.12
2023-08-14T06:12:47.087Z,17.20
2023-08-14T06:13:47.221Z,17.28
2023-08-14T06:14:47.090Z,17.34
2023-08-14T06:15:47.063Z,17.41
2023-08-14T06:16:47.134Z,17.49
2023-08-14T06:17:47.066Z,17.53
2023-08-14T06:18:47.051Z,17.59
2023-08-14T06:19:47.013Z,17.68
2023-08-14T06:20:46.998Z,17.73
2023-08-14T06:21:47.061Z,17.79
2023-08-14T06:22:46.992Z,17.86
2023-08-14T06:23:46.989Z,17.93
2023-08-14T06:24:46.960Z,18.02
2023-08-14T06:25:46.961Z,18.09
2023-08-14T06:26:46.953Z,18.13
2023-08-14T06:27:46.965Z,18.20
2023-08-14T06:28:46.912Z,18.26
2023-08-14T06:29:46.922Z,18.28
2023-08-14T06:30:46.921Z,18.36
2023-08-14T06:31:46.895Z,18.42
2023-08-14T06:32:46.917Z,18.54
2023-08-14T06:33:46.899Z,18.63
2023-08-14T06:34:46.852Z,18.70
2023-08-14T06:35:46.847Z,18.79
2023-08-14T06:36:46.837Z,18.89
2023-08-14T06:37:46.831Z,18.96
2023-08-14T06:38:46.834Z,19.05
2023-08-14T06:39:46.802Z,19.12
2023-08-14T06:40:46.805Z,19.20
2023-08-14T06:41:46.819Z,19.24
2023-08-14T06:42:46.774Z,19.31
2023-08-14T06:43:46.800Z,19.34
2023-08-14T06:44:46.755Z,19.37
2023-08-14T06:45:46.759Z,19.38
2023-08-14T06:46:46.788Z,19.44
2023-08-14T06:47:46.756Z,19.49
2023-08-14T06:48:46.724Z,19.52
2023-08-14T06:49:46.723Z,19.57
2023-08-14T06:50:46.683Z,19.62
2023-08-14T06:51:46.691Z,19.67
2023-08-14T06:52:46.684Z,19.68
2023-08-14T06:53:46.694Z,19.70
2023-08-14T06:54:46.649Z,19.74
2023-08-14T06:55:46.641Z,19.77
2023-08-14T06:56:46.654Z,19.81
2023-08-14T06:57:46.655Z,19.87
2023-08-14T06:58:46.768Z,19.93
2023-08-14T06:59:46.869Z,20.00
2023-08-14T07:00:46.613Z,20.04
2023-08-14T07:01:47.227Z,20.08
2023-08-14T07:02:46.787Z,20.14
2023-08-14T07:03:46.652Z,20.17
2023-08-14T07:04:46.547Z,20.19
2023-08-14T07:05:46.868Z,20.19
2023-08-14T07:06:46.908Z,20.23
2023-08-14T07:07:46.520Z,20.23
2023-08-14T07:08:46.511Z,20.26
2023-08-14T07:09:46.542Z,20.33
2023-08-14T07:10:47.917Z,20.33
2023-08-14T07:11:46.505Z,20.36
2023-08-14T07:12:46.463Z,20.34
2023-08-14T07:13:46.458Z,20.37
2023-08-14T07:14:46.442Z,20.37
2023-08-14T07:15:46.417Z,20.41
2023-08-14T07:16:46.456Z,20.37
2023-08-14T07:17:46.431Z,20.39
2023-08-14T07:18:46.386Z,20.42
2023-08-14T07:19:46.367Z,20.44
2023-08-14T07:20:46.352Z,20.46
2023-08-14T07:21:46.371Z,20.49
2023-08-14T07:22:46.346Z,20.49
2023-08-14T07:23:46.324Z,20.50
2023-08-14T07:24:46.329Z,20.53
2023-08-14T07:25:46.316Z,20.50
2023-08-14T07:26:46.343Z,20.50
2023-08-14T07:27:46.288Z,20.48
2023-08-14T07:28:46.271Z,20.49
2023-08-14T07:29:46.277Z,20.53
2023-08-14T07:30:46.439Z,20.53
2023-08-14T07:31:46.254Z,20.50
2023-08-14T07:32:46.281Z,20.52
2023-08-14T07:33:46.225Z,20.49
2023-08-14T07:34:46.209Z,20.48
2023-08-14T07:35:46.215Z,20.48
2023-08-14T07:36:46.189Z,20.46
2023-08-14T07:37:46.196Z,20.44
2023-08-14T07:38:46.182Z,20.42
2023-08-14T07:39:46.149Z,20.39
2023-08-14T07:40:46.147Z,20.36
2023-08-14T07:41:46.156Z,20.34
2023-08-14T07:42:46.140Z,20.36
2023-08-14T07:43:46.142Z,20.33
2023-08-14T07:44:46.116Z,20.32
2023-08-14T07:45:46.125Z,20.34
2023-08-14T07:46:46.070Z,20.36
2023-08-14T07:47:46.086Z,20.33
2023-08-14T07:48:46.046Z,20.32
2023-08-14T07:49:46.059Z,20.37
2023-08-14T07:50:46.046Z,20.42
2023-08-14T07:51:46.018Z,20.46
2023-08-14T07:52:46.034Z,20.50
2023-08-14T07:53:46.004Z,20.55
2023-08-14T07:54:45.986Z,20.56
2023-08-14T07:55:45.992Z,20.60
2023-08-14T07:56:47.502Z,20.61
2023-08-14T07:57:46.652Z,20.63
2023-08-14T07:58:45.944Z,20.67
2023-08-14T07:59:45.928Z,20.70
2023-08-14T08:00:45.925Z,20.68
2023-08-14T08:01:46.063Z,20.71
2023-08-14T08:02:45.912Z,20.73
2023-08-14T08:03:45.913Z,20.73
2023-08-14T08:04:45.891Z,20.73
2023-08-14T08:05:45.908Z,20.73
2023-08-14T08:06:45.849Z,20.75
2023-08-14T08:07:45.861Z,20.80
2023-08-14T08:08:47.641Z,20.86
2023-08-14T08:09:45.834Z,20.92
2023-08-14T08:10:45.810Z,21.05
2023-08-14T08:11:45.804Z,21.07
2023-08-14T08:12:45.827Z,21.20
2023-08-14T08:13:45.796Z,21.34
2023-08-14T08:14:46.742Z,21.47
2023-08-14T08:15:45.809Z,21.47
2023-08-14T08:16:45.944Z,21.38
2023-08-14T08:17:45.811Z,21.34
2023-08-14T08:18:45.750Z,21.34
2023-08-14T08:19:45.733Z,21.29
2023-08-14T08:20:45.702Z,21.22
2023-08-14T08:21:45.710Z,21.16
2023-08-14T08:22:45.786Z,21.08
2023-08-14T08:23:45.667Z,21.07
2023-08-14T08:24:45.692Z,21.08
2023-08-14T08:25:45.649Z,21.10
2023-08-14T08:26:45.636Z,21.10
2023-08-14T08:27:45.644Z,21.10
2023-08-14T08:28:45.611Z,21.08
2023-08-14T08:29:45.608Z,21.05
2023-08-14T08:30:45.608Z,21.04
2023-08-14T08:31:45.648Z,21.20
2023-08-14T08:32:45.610Z,21.41
2023-08-14T08:33:45.568Z,21.65
2023-08-14T08:34:45.568Z,21.84
2023-08-14T08:35:45.548Z,21.94
2023-08-14T08:36:45.527Z,22.06
2023-08-14T08:37:45.545Z,22.13
2023-08-14T08:38:45.508Z,22.22
2023-08-14T08:39:45.517Z,22.38
2023-08-14T08:40:45.490Z,22.53
2023-08-14T08:41:45.483Z,22.62
2023-08-14T08:42:45.476Z,22.66
2023-08-14T08:43:45.489Z,22.76
2023-08-14T08:44:45.458Z,22.81
2023-08-14T08:45:45.513Z,22.77
2023-08-14T08:46:45.436Z,22.86
2023-08-14T08:47:45.444Z,22.89
2023-08-14T08:48:45.453Z,22.99
2023-08-14T08:49:45.398Z,23.08
2023-08-14T08:50:45.689Z,22.99
2023-08-14T08:51:48.868Z,23.01
2023-08-14T08:52:45.372Z,23.14
2023-08-14T08:53:47.009Z,23.25
2023-08-14T08:54:45.342Z,23.34
2023-08-14T08:56:45.323Z,23.44
2023-08-14T08:57:45.307Z,23.44
2023-08-14T08:58:45.337Z,23.45
2023-08-14T08:59:45.302Z,23.51
2023-08-14T09:00:45.272Z,23.54
2023-08-14T09:01:45.322Z,23.63
2023-08-14T09:02:47.346Z,23.64
2023-08-14T09:03:45.353Z,23.73
2023-08-14T09:04:45.610Z,23.76
2023-08-14T09:05:45.242Z,23.85
2023-08-14T09:06:45.243Z,23.92
2023-08-14T09:07:47.195Z,23.98
2023-08-14T09:08:45.220Z,24.03
2023-08-14T09:09:45.209Z,24.07
2023-08-14T09:10:45.202Z,24.22
2023-08-14T09:11:45.183Z,24.34
2023-08-14T09:12:45.158Z,24.41
2023-08-14T09:13:45.126Z,24.45
2023-08-14T09:14:45.163Z,24.45
2023-08-14T09:15:45.159Z,24.40
2023-08-14T09:16:45.110Z,24.43
2023-08-14T09:17:45.136Z,24.51
2023-08-14T09:18:45.080Z,24.31
2023-08-14T09:19:45.083Z,24.25
2023-08-14T09:20:45.060Z,24.31
2023-08-14T09:21:46.358Z,24.29
2023-08-14T09:22:45.074Z,24.26
2023-08-14T09:23:45.033Z,24.25
2023-08-14T09:24:45.028Z,24.33
2023-08-14T09:25:45.045Z,24.40
2023-08-14T09:26:45.012Z,24.29
2023-08-14T09:27:44.986Z,24.34
2023-08-14T09:28:44.984Z,24.36
2023-08-14T09:29:44.997Z,24.40
2023-08-14T09:30:44.974Z,24.41
2023-08-14T09:31:44.946Z,24.44
2023-08-14T09:32:45.068Z,24.41
2023-08-14T09:33:44.922Z,24.55
2023-08-14T09:34:44.942Z,24.70
2023-08-14T09:35:44.919Z,24.78
2023-08-14T09:36:44.910Z,24.75
2023-08-14T09:37:44.952Z,24.82
2023-08-14T09:38:44.876Z,24.97
2023-08-14T09:39:44.892Z,25.12
2023-08-14T09:40:44.835Z,25.21
2023-08-14T09:41:44.841Z,25.26
2023-08-14T09:42:44.848Z,25.34
2023-08-14T09:43:44.820Z,25.46
2023-08-14T09:44:44.881Z,25.58
2023-08-14T09:45:44.795Z,25.66
2023-08-14T09:46:44.859Z,25.81
2023-08-14T09:47:46.335Z,25.88
2023-08-14T09:48:44.834Z,25.86
2023-08-14T09:49:44.742Z,25.83
2023-08-14T09:50:44.865Z,25.83
2023-08-14T09:51:44.757Z,25.92
2023-08-14T09:52:46.656Z,25.96
2023-08-14T09:53:44.719Z,26.10
2023-08-14T09:54:44.710Z,26.15
2023-08-14T09:55:44.713Z,26.05
2023-08-14T09:56:44.719Z,26.11
2023-08-14T09:57:44.703Z,26.26
2023-08-14T09:58:44.714Z,26.24
2023-08-14T09:59:44.685Z,26.27
2023-08-14T10:00:44.679Z,26.36
2023-08-14T10:01:44.664Z,26.39
2023-08-14T10:02:44.729Z,26.21
2023-08-14T10:03:44.622Z,26.08
2023-08-14T10:04:44.611Z,26.03
2023-08-14T10:05:44.593Z,26.11
2023-08-14T10:06:44.614Z,26.15
2023-08-14T10:07:44.600Z,26.21
2023-08-14T10:08:44.590Z,26.23
2023-08-14T10:09:44.556Z,26.08
2023-08-14T10:10:47.927Z,25.96
2023-08-14T10:11:44.525Z,26.01
2023-08-14T10:12:44.532Z,26.07
2023-08-14T10:13:44.522Z,26.11
2023-08-14T10:14:44.495Z,26.20
2023-08-14T10:15:44.588Z,26.16
2023-08-14T10:16:44.525Z,26.08
2023-08-14T10:17:44.519Z,26.10
2023-08-14T10:18:44.447Z,26.20
2023-08-14T10:19:45.122Z,26.34
2023-08-14T10:20:45.122Z,26.34
2023-08-14T10:21:44.450Z,26.48
2023-08-14T10:22:44.489Z,26.33
2023-08-14T10:23:44.408Z,26.41
2023-08-14T10:24:44.389Z,26.45
2023-08-14T10:25:44.392Z,26.38
2023-08-14T10:26:44.399Z,26.41
2023-08-14T10:27:44.350Z,26.41
2023-08-14T10:28:44.387Z,26.45
2023-08-14T10:29:44.465Z,26.65
2023-08-14T10:30:44.459Z,26.85
2023-08-14T10:31:44.359Z,27.00
2023-08-14T10:32:44.315Z,26.89
2023-08-14T10:33:44.303Z,26.88
2023-08-14T10:34:44.275Z,26.95
2023-08-14T10:35:44.274Z,27.10
2023-08-14T10:36:44.250Z,27.15
2023-08-14T10:37:46.133Z,27.04
2023-08-14T10:38:44.253Z,27.13
2023-08-14T10:39:44.222Z,27.25
2023-08-14T10:40:44.200Z,27.26
2023-08-14T10:41:44.206Z,27.31
2023-08-14T10:42:44.180Z,27.27
2023-08-14T10:43:44.167Z,27.38
2023-08-14T10:44:44.167Z,27.60
2023-08-14T10:45:44.131Z,27.52
2023-08-14T10:46:44.227Z,27.57
2023-08-14T10:47:44.147Z,27.54
2023-08-14T10:48:44.151Z,27.42
2023-08-14T10:49:44.102Z,27.45
2023-08-14T10:50:44.111Z,27.45
2023-08-14T10:51:44.125Z,27.26
2023-08-14T10:52:44.068Z,27.16
2023-08-14T10:53:44.065Z,27.31
2023-08-14T10:54:44.052Z,27.53
2023-08-14T10:55:44.034Z,27.47
2023-08-14T10:56:44.027Z,27.79
2023-08-14T10:57:44.035Z,28.16
2023-08-14T10:58:44.017Z,28.54
2023-08-14T10:59:44.055Z,28.61
2023-08-14T11:00:43.991Z,28.65
2023-08-14T11:01:44.040Z,28.24
2023-08-14T11:02:44.013Z,27.91
2023-08-14T11:03:43.995Z,28.05
2023-08-14T11:04:43.947Z,28.15
2023-08-14T11:05:43.991Z,28.40
2023-08-14T11:06:43.934Z,28.47
2023-08-14T11:07:50.665Z,28.69
2023-08-14T11:08:43.907Z,28.93
2023-08-14T11:09:43.931Z,29.15
2023-08-14T11:10:43.904Z,29.07
2023-08-14T11:11:43.873Z,29.13
2023-08-14T11:12:43.930Z,29.43
2023-08-14T11:13:44.088Z,29.65
2023-08-14T11:14:43.865Z,29.58
2023-08-14T11:15:43.938Z,29.66
2023-08-14T11:16:43.904Z,29.78
2023-08-14T11:17:43.904Z,30.05
2023-08-14T11:18:43.841Z,29.96
2023-08-14T11:19:43.800Z,29.93
2023-08-14T11:20:43.922Z,30.21
2023-08-14T11:21:43.783Z,30.43
2023-08-14T11:22:43.769Z,30.58
2023-08-14T11:23:43.781Z,30.67
2023-08-14T11:24:43.807Z,30.74
2023-08-14T11:25:43.753Z,30.77
2023-08-14T11:26:44.232Z,31.02
2023-08-14T11:27:44.545Z,31.14
2023-08-14T11:29:51.803Z,31.45
2023-08-14T11:30:43.714Z,31.41
2023-08-14T11:31:49.356Z,31.42
2023-08-14T11:32:43.700Z,31.32
2023-08-14T11:33:43.765Z,31.45
2023-08-14T11:34:43.668Z,31.45
2023-08-14T11:35:45.018Z,31.68
2023-08-14T11:36:43.681Z,31.54
2023-08-14T11:37:43.639Z,30.97
2023-08-14T11:38:44.856Z,30.53
2023-08-14T11:39:43.640Z,30.67
2023-08-14T11:40:43.625Z,30.59
2023-08-14T11:41:43.601Z,30.77
2023-08-14T11:42:43.846Z,31.08
2023-08-14T11:43:46.718Z,31.48
2023-08-14T11:44:43.554Z,31.60
2023-08-14T11:45:43.577Z,31.64
2023-08-14T11:46:43.556Z,31.67
2023-08-14T11:47:43.626Z,31.74
2023-08-14T11:48:43.637Z,31.84
2023-08-14T11:49:43.570Z,32.08
2023-08-14T11:50:43.499Z,32.08
2023-08-14T11:51:43.475Z,31.75
2023-08-14T11:52:43.492Z,31.94
2023-08-14T11:53:43.469Z,32.01
2023-08-14T11:54:43.487Z,32.21
2023-08-14T11:55:43.431Z,32.45
2023-08-14T11:56:43.427Z,32.51
2023-08-14T11:57:43.437Z,32.50
2023-08-14T11:58:47.934Z,32.46
2023-08-14T11:59:43.408Z,32.21
2023-08-14T12:00:43.399Z,32.21
2023-08-14T12:01:43.395Z,32.43
2023-08-14T12:02:43.406Z,32.51
2023-08-14T12:03:43.520Z,32.21
2023-08-14T12:04:43.371Z,32.26
2023-08-14T12:05:44.158Z,32.39
2023-08-14T12:06:43.310Z,32.50
2023-08-14T12:07:43.293Z,32.38
2023-08-14T12:08:43.323Z,32.01
2023-08-14T12:09:43.306Z,31.76
2023-08-14T12:10:43.311Z,31.68
2023-08-14T12:11:43.275Z,31.84
2023-08-14T12:12:54.475Z,31.97
2023-08-14T12:13:43.273Z,32.09
2023-08-14T12:14:43.281Z,32.38
2023-08-14T12:15:43.322Z,32.45
2023-08-14T12:16:43.349Z,32.41
2023-08-14T12:17:43.412Z,32.05
2023-08-14T12:18:43.257Z,32.42
2023-08-14T12:19:43.196Z,32.69
2023-08-14T12:20:43.287Z,32.85
2023-08-14T12:21:43.207Z,32.75
2023-08-14T12:22:47.130Z,32.58
2023-08-14T12:23:43.153Z,32.19
2023-08-14T12:24:43.133Z,32.32
2023-08-14T12:25:43.147Z,32.16
2023-08-14T12:26:43.125Z,32.38
2023-08-14T12:27:43.090Z,32.61
2023-08-14T12:28:43.146Z,33.03
2023-08-14T12:29:43.141Z,33.42
2023-08-14T12:30:43.061Z,33.52
2023-08-14T12:31:43.121Z,33.63
2023-08-14T12:32:43.098Z,33.35
2023-08-14T12:33:45.108Z,32.41
2023-08-14T12:34:43.276Z,32.27
2023-08-14T12:35:43.083Z,32.28
2023-08-14T12:36:43.168Z,31.81
2023-08-14T12:37:43.069Z,31.91
2023-08-14T12:38:42.990Z,32.26
2023-08-14T12:39:43.091Z,32.45
2023-08-14T12:40:43.052Z,32.24
2023-08-14T12:41:43.143Z,32.14
2023-08-14T12:42:42.970Z,32.09
2023-08-14T12:43:42.977Z,32.14
2023-08-14T12:44:42.959Z,32.45
2023-08-14T12:45:42.945Z,32.72
2023-08-14T12:46:42.939Z,32.73
2023-08-14T12:47:42.978Z,32.98
2023-08-14T12:48:42.890Z,33.09
2023-08-14T12:49:42.939Z,33.39
2023-08-14T12:50:42.876Z,33.88
2023-08-14T12:51:42.879Z,34.25
2023-08-14T12:52:42.944Z,34.42
2023-08-14T12:53:42.845Z,34.52
2023-08-14T12:54:42.896Z,34.53
2023-08-14T12:55:42.811Z,34.56